sensor_id;sensor_type;location;lat;lon;timestamp;P1;durP1;ratioP1;P2;durP2;ratioP2
30380;SDS011;17169;50.966;11.038;2022-09-12T00:00:05;15.38;;;8.65;;
30380;SDS011;17169;50.966;11.038;2022-09-12T00:03:08;11.75;;;7.65;;
30380;SDS011;17169;50.966;11.038;2022-09-12T00:06:11;15.55;;;8.77;;
30380;SDS011;17169;50.966;11.038;2022-09-12T00:09:17;16.23;;;8.25;;
30380;SDS011;17169;50.966;11.038;2022-09-12T00:12:19;17.17;;;8.32;;
30380;SDS011;17169;50.966;11.038;2022-09-12T00:15:23;12.38;;;8.38;;
30380;SDS011;17169;50.966;11.038;2022-09-12T00:18:25;15.40;;;9.13;;
30380;SDS011;17169;50.966;11.038;2022-09-12T00:21:28;16.02;;;9.55;;
30380;SDS011;17169;50.966;11.038;2022-09-12T00:24:33;18.35;;;8.90;;
30380;SDS011;17169;50.966;11.038;2022-09-12T00:27:35;14.48;;;8.00;;
30380;SDS011;17169;50.966;11.038;2022-09-12T00:30:42;13.00;;;8.30;;
30380;SDS011;17169;50.966;11.038;2022-09-12T00:33:45;13.23;;;8.23;;
30380;SDS011;17169;50.966;11.038;2022-09-12T00:36:47;18.67;;;9.75;;
30380;SDS011;17169;50.966;11.038;2022-09-12T00:39:50;14.77;;;8.23;;
30380;SDS011;17169;50.966;11.038;2022-09-12T00:42:52;12.57;;;8.18;;
30380;SDS011;17169;50.966;11.038;2022-09-12T00:45:56;14.02;;;8.02;;
30380;SDS011;17169;50.966;11.038;2022-09-12T00:49:02;13.48;;;8.35;;
30380;SDS011;17169;50.966;11.038;2022-09-12T00:52:10;14.93;;;9.07;;
30380;SDS011;17169;50.966;11.038;2022-09-12T00:55:16;16.97;;;8.67;;
30380;SDS011;17169;50.966;11.038;2022-09-12T00:58:22;14.30;;;8.80;;
30380;SDS011;17169;50.966;11.038;2022-09-12T01:01:27;18.60;;;8.70;;
30380;SDS011;17169;50.966;11.038;2022-09-12T01:04:30;13.27;;;8.18;;
30380;SDS011;17169;50.966;11.038;2022-09-12T01:07:35;12.20;;;7.65;;
30380;SDS011;17169;50.966;11.038;2022-09-12T01:10:39;15.77;;;8.73;;
30380;SDS011;17169;50.966;11.038;2022-09-12T01:13:43;14.47;;;8.73;;
30380;SDS011;17169;50.966;11.038;2022-09-12T01:16:48;15.70;;;8.80;;
30380;SDS011;17169;50.966;11.038;2022-09-12T01:19:58;14.00;;;8.40;;
30380;SDS011;17169;50.966;11.038;2022-09-12T01:30:43;12.98;;;8.43;;
30380;SDS011;17169;50.966;11.038;2022-09-12T01:33:59;13.55;;;7.65;;
30380;SDS011;17169;50.966;11.038;2022-09-12T01:37:09;12.48;;;8.02;;
30380;SDS011;17169;50.966;11.038;2022-09-12T01:40:19;14.10;;;7.80;;
30380;SDS011;17169;50.966;11.038;2022-09-12T01:43:25;11.75;;;7.72;;
30380;SDS011;17169;50.966;11.038;2022-09-12T01:46:39;11.32;;;7.95;;
30380;SDS011;17169;50.966;11.038;2022-09-12T01:49:47;14.68;;;8.40;;
30380;SDS011;17169;50.966;11.038;2022-09-12T01:52:58;18.55;;;7.40;;
30380;SDS011;17169;50.966;11.038;2022-09-12T01:56:05;13.30;;;8.15;;
30380;SDS011;17169;50.966;11.038;2022-09-12T01:59:13;13.18;;;8.15;;
30380;SDS011;17169;50.966;11.038;2022-09-12T02:02:20;13.73;;;8.40;;
30380;SDS011;17169;50.966;11.038;2022-09-12T02:05:27;15.43;;;8.52;;
30380;SDS011;17169;50.966;11.038;2022-09-12T02:08:34;11.05;;;7.60;;
30380;SDS011;17169;50.966;11.038;2022-09-12T02:11:41;12.80;;;7.55;;
30380;SDS011;17169;50.966;11.038;2022-09-12T02:14:47;13.77;;;8.05;;
30380;SDS011;17169;50.966;11.038;2022-09-12T02:17:53;12.52;;;8.25;;
30380;SDS011;17169;50.966;11.038;2022-09-12T02:21:00;12.18;;;8.32;;
30380;SDS011;17169;50.966;11.038;2022-09-12T02:24:06;11.25;;;7.38;;
30380;SDS011;17169;50.966;11.038;2022-09-12T02:27:12;13.95;;;8.20;;
30380;SDS011;17169;50.966;11.038;2022-09-12T02:30:17;20.15;;;12.93;;
30380;SDS011;17169;50.966;11.038;2022-09-12T02:33:23;16.95;;;9.75;;
30380;SDS011;17169;50.966;11.038;2022-09-12T02:36:31;14.23;;;7.95;;
30380;SDS011;17169;50.966;11.038;2022-09-12T02:39:39;15.18;;;10.05;;
30380;SDS011;17169;50.966;11.038;2022-09-12T02:42:42;10.57;;;7.70;;
30380;SDS011;17169;50.966;11.038;2022-09-12T02:45:44;14.70;;;9.25;;
30380;SDS011;17169;50.966;11.038;2022-09-12T02:48:48;12.15;;;7.47;;
30380;SDS011;17169;50.966;11.038;2022-09-12T02:51:50;10.90;;;6.68;;
30380;SDS011;17169;50.966;11.038;2022-09-12T02:54:53;13.27;;;6.57;;
30380;SDS011;17169;50.966;11.038;2022-09-12T02:57:58;14.65;;;7.53;;
30380;SDS011;17169;50.966;11.038;2022-09-12T03:01:03;12.85;;;7.13;;
30380;SDS011;17169;50.966;11.038;2022-09-12T03:04:18;12.68;;;6.95;;
30380;SDS011;17169;50.966;11.038;2022-09-12T03:07:43;11.63;;;7.07;;
30380;SDS011;17169;50.966;11.038;2022-09-12T03:11:19;13.50;;;7.60;;
30380;SDS011;17169;50.966;11.038;2022-09-12T03:14:48;19.15;;;7.80;;
30380;SDS011;17169;50.966;11.038;2022-09-12T03:18:05;14.05;;;7.30;;
30380;SDS011;17169;50.966;11.038;2022-09-12T03:24:28;12.90;;;7.30;;
30380;SDS011;17169;50.966;11.038;2022-09-12T03:27:33;11.57;;;7.45;;
30380;SDS011;17169;50.966;11.038;2022-09-12T03:30:42;13.35;;;7.30;;
30380;SDS011;17169;50.966;11.038;2022-09-12T03:33:46;12.80;;;7.35;;
30380;SDS011;17169;50.966;11.038;2022-09-12T03:36:49;12.30;;;7.25;;
30380;SDS011;17169;50.966;11.038;2022-09-12T03:39:52;11.13;;;7.18;;
30380;SDS011;17169;50.966;11.038;2022-09-12T03:42:54;12.98;;;7.57;;
30380;SDS011;17169;50.966;11.038;2022-09-12T03:45:57;16.10;;;8.13;;
30380;SDS011;17169;50.966;11.038;2022-09-12T03:48:59;12.23;;;8.00;;
30380;SDS011;17169;50.966;11.038;2022-09-12T03:52:03;11.98;;;7.70;;
30380;SDS011;17169;50.966;11.038;2022-09-12T03:55:06;11.32;;;7.53;;
30380;SDS011;17169;50.966;11.038;2022-09-12T03:58:09;13.82;;;7.88;;
30380;SDS011;17169;50.966;11.038;2022-09-12T04:01:11;12.05;;;7.78;;
30380;SDS011;17169;50.966;11.038;2022-09-12T04:04:15;10.93;;;6.63;;
30380;SDS011;17169;50.966;11.038;2022-09-12T04:07:19;11.23;;;6.90;;
30380;SDS011;17169;50.966;11.038;2022-09-12T04:10:21;12.73;;;7.75;;
30380;SDS011;17169;50.966;11.038;2022-09-12T04:13:23;13.45;;;7.70;;
30380;SDS011;17169;50.966;11.038;2022-09-12T04:16:26;13.15;;;7.90;;
30380;SDS011;17169;50.966;11.038;2022-09-12T04:19:28;12.40;;;7.63;;
30380;SDS011;17169;50.966;11.038;2022-09-12T04:22:32;14.05;;;8.30;;
30380;SDS011;17169;50.966;11.038;2022-09-12T04:25:35;12.48;;;7.20;;
30380;SDS011;17169;50.966;11.038;2022-09-12T04:28:37;13.40;;;7.95;;
30380;SDS011;17169;50.966;11.038;2022-09-12T04:31:40;15.55;;;8.35;;
30380;SDS011;17169;50.966;11.038;2022-09-12T04:34:43;15.20;;;8.82;;
30380;SDS011;17169;50.966;11.038;2022-09-12T04:37:48;11.90;;;7.93;;
30380;SDS011;17169;50.966;11.038;2022-09-12T04:40:50;11.27;;;6.95;;
30380;SDS011;17169;50.966;11.038;2022-09-12T04:43:53;11.50;;;7.63;;
30380;SDS011;17169;50.966;11.038;2022-09-12T04:46:57;12.73;;;7.38;;
30380;SDS011;17169;50.966;11.038;2022-09-12T04:50:00;13.00;;;6.88;;
30380;SDS011;17169;50.966;11.038;2022-09-12T04:53:03;13.48;;;7.28;;
30380;SDS011;17169;50.966;11.038;2022-09-12T04:56:07;14.40;;;7.57;;
30380;SDS011;17169;50.966;11.038;2022-09-12T04:59:11;12.93;;;7.68;;
30380;SDS011;17169;50.966;11.038;2022-09-12T05:02:15;11.30;;;6.57;;
30380;SDS011;17169;50.966;11.038;2022-09-12T05:05:18;13.30;;;6.38;;
30380;SDS011;17169;50.966;11.038;2022-09-12T05:08:22;10.95;;;7.03;;
30380;SDS011;17169;50.966;11.038;2022-09-12T05:11:25;12.95;;;6.85;;
30380;SDS011;17169;50.966;11.038;2022-09-12T05:14:29;12.77;;;7.47;;
30380;SDS011;17169;50.966;11.038;2022-09-12T05:17:32;10.80;;;6.97;;
30380;SDS011;17169;50.966;11.038;2022-09-12T05:20:34;9.77;;;7.25;;
30380;SDS011;17169;50.966;11.038;2022-09-12T05:23:38;14.88;;;6.97;;
30380;SDS011;17169;50.966;11.038;2022-09-12T05:26:41;13.32;;;7.07;;
30380;SDS011;17169;50.966;11.038;2022-09-12T05:29:44;12.25;;;7.78;;
30380;SDS011;17169;50.966;11.038;2022-09-12T05:32:46;9.70;;;6.97;;
30380;SDS011;17169;50.966;11.038;2022-09-12T05:35:49;11.23;;;6.97;;
30380;SDS011;17169;50.966;11.038;2022-09-12T05:38:54;15.32;;;6.63;;
30380;SDS011;17169;50.966;11.038;2022-09-12T05:41:57;10.35;;;7.47;;
30380;SDS011;17169;50.966;11.038;2022-09-12T05:44:59;14.27;;;7.30;;
30380;SDS011;17169;50.966;11.038;2022-09-12T05:48:01;9.90;;;6.28;;
30380;SDS011;17169;50.966;11.038;2022-09-12T05:51:05;11.65;;;6.97;;
30380;SDS011;17169;50.966;11.038;2022-09-12T05:54:11;14.00;;;6.72;;
30380;SDS011;17169;50.966;11.038;2022-09-12T05:57:15;11.55;;;6.82;;
30380;SDS011;17169;50.966;11.038;2022-09-12T06:00:17;12.90;;;6.90;;
30380;SDS011;17169;50.966;11.038;2022-09-12T06:03:20;10.55;;;6.32;;
30380;SDS011;17169;50.966;11.038;2022-09-12T06:06:23;15.32;;;7.07;;
30380;SDS011;17169;50.966;11.038;2022-09-12T06:09:28;13.13;;;6.95;;
30380;SDS011;17169;50.966;11.038;2022-09-12T06:12:31;12.52;;;6.57;;
30380;SDS011;17169;50.966;11.038;2022-09-12T06:15:33;9.88;;;7.20;;
30380;SDS011;17169;50.966;11.038;2022-09-12T06:18:36;10.05;;;6.40;;
30380;SDS011;17169;50.966;11.038;2022-09-12T06:21:39;13.52;;;7.40;;
30380;SDS011;17169;50.966;11.038;2022-09-12T06:24:43;11.65;;;6.70;;
30380;SDS011;17169;50.966;11.038;2022-09-12T06:27:46;13.82;;;6.38;;
30380;SDS011;17169;50.966;11.038;2022-09-12T06:30:49;12.55;;;6.90;;
30380;SDS011;17169;50.966;11.038;2022-09-12T06:33:52;11.38;;;7.18;;
30380;SDS011;17169;50.966;11.038;2022-09-12T06:36:55;14.63;;;6.80;;
30380;SDS011;17169;50.966;11.038;2022-09-12T06:39:59;10.40;;;6.47;;
30380;SDS011;17169;50.966;11.038;2022-09-12T06:43:01;10.55;;;7.05;;
30380;SDS011;17169;50.966;11.038;2022-09-12T06:46:05;11.73;;;7.00;;
30380;SDS011;17169;50.966;11.038;2022-09-12T06:49:08;9.98;;;6.57;;
30380;SDS011;17169;50.966;11.038;2022-09-12T06:52:10;16.52;;;6.25;;
30380;SDS011;17169;50.966;11.038;2022-09-12T06:55:14;11.15;;;6.68;;
30380;SDS011;17169;50.966;11.038;2022-09-12T06:58:17;13.27;;;6.82;;
30380;SDS011;17169;50.966;11.038;2022-09-12T07:01:20;10.48;;;7.18;;
30380;SDS011;17169;50.966;11.038;2022-09-12T07:04:24;11.82;;;7.30;;
30380;SDS011;17169;50.966;11.038;2022-09-12T07:07:27;15.60;;;7.53;;
30380;SDS011;17169;50.966;11.038;2022-09-12T07:10:35;9.40;;;6.43;;
30380;SDS011;17169;50.966;11.038;2022-09-12T07:13:37;11.77;;;6.82;;
30380;SDS011;17169;50.966;11.038;2022-09-12T07:16:40;12.02;;;7.00;;
30380;SDS011;17169;50.966;11.038;2022-09-12T07:19:42;10.32;;;6.22;;
30380;SDS011;17169;50.966;11.038;2022-09-12T07:22:45;14.05;;;6.97;;
30380;SDS011;17169;50.966;11.038;2022-09-12T07:25:52;10.55;;;7.15;;
30380;SDS011;17169;50.966;11.038;2022-09-12T07:28:57;15.02;;;7.38;;
30380;SDS011;17169;50.966;11.038;2022-09-12T07:31:59;14.98;;;7.03;;
30380;SDS011;17169;50.966;11.038;2022-09-12T07:35:02;14.13;;;7.30;;
30380;SDS011;17169;50.966;11.038;2022-09-12T07:38:05;12.15;;;7.20;;
30380;SDS011;17169;50.966;11.038;2022-09-12T07:41:12;12.95;;;6.97;;
30380;SDS011;17169;50.966;11.038;2022-09-12T07:44:15;12.60;;;6.60;;
30380;SDS011;17169;50.966;11.038;2022-09-12T07:47:17;14.05;;;7.05;;
30380;SDS011;17169;50.966;11.038;2022-09-12T07:50:19;17.05;;;7.25;;
30380;SDS011;17169;50.966;11.038;2022-09-12T07:53:22;12.63;;;6.93;;
30380;SDS011;17169;50.966;11.038;2022-09-12T07:56:26;13.07;;;6.65;;
30380;SDS011;17169;50.966;11.038;2022-09-12T07:59:29;12.15;;;6.97;;
30380;SDS011;17169;50.966;11.038;2022-09-12T08:02:32;11.52;;;6.72;;
30380;SDS011;17169;50.966;11.038;2022-09-12T08:05:34;16.10;;;7.38;;
30380;SDS011;17169;50.966;11.038;2022-09-12T08:08:36;9.45;;;6.35;;
30380;SDS011;17169;50.966;11.038;2022-09-12T08:11:41;9.45;;;6.28;;
30380;SDS011;17169;50.966;11.038;2022-09-12T08:14:43;11.98;;;6.70;;
30380;SDS011;17169;50.966;11.038;2022-09-12T08:17:45;11.30;;;6.72;;
30380;SDS011;17169;50.966;11.038;2022-09-12T08:20:48;11.40;;;7.05;;
30380;SDS011;17169;50.966;11.038;2022-09-12T08:23:58;11.60;;;6.22;;
30380;SDS011;17169;50.966;11.038;2022-09-12T08:27:04;8.98;;;6.07;;
30380;SDS011;17169;50.966;11.038;2022-09-12T08:30:06;10.80;;;6.82;;
30380;SDS011;17169;50.966;11.038;2022-09-12T08:33:09;9.35;;;6.63;;
30380;SDS011;17169;50.966;11.038;2022-09-12T08:36:12;10.25;;;6.32;;
30380;SDS011;17169;50.966;11.038;2022-09-12T08:39:16;11.57;;;6.40;;
30380;SDS011;17169;50.966;11.038;2022-09-12T08:42:20;11.85;;;6.90;;
30380;SDS011;17169;50.966;11.038;2022-09-12T08:45:31;12.75;;;5.80;;
30380;SDS011;17169;50.966;11.038;2022-09-12T08:48:39;10.50;;;6.03;;
30380;SDS011;17169;50.966;11.038;2022-09-12T08:51:44;12.13;;;5.70;;
30380;SDS011;17169;50.966;11.038;2022-09-12T08:54:47;9.43;;;5.93;;
30380;SDS011;17169;50.966;11.038;2022-09-12T08:57:51;10.40;;;5.90;;
30380;SDS011;17169;50.966;11.038;2022-09-12T09:00:56;11.82;;;5.88;;
30380;SDS011;17169;50.966;11.038;2022-09-12T09:04:14;9.55;;;5.35;;
30380;SDS011;17169;50.966;11.038;2022-09-12T09:07:37;9.45;;;5.18;;
30380;SDS011;17169;50.966;11.038;2022-09-12T09:10:56;11.55;;;5.22;;
30380;SDS011;17169;50.966;11.038;2022-09-12T09:14:09;8.32;;;5.47;;
30380;SDS011;17169;50.966;11.038;2022-09-12T09:17:38;10.93;;;5.63;;
30380;SDS011;17169;50.966;11.038;2022-09-12T09:23:48;9.73;;;4.82;;
30380;SDS011;17169;50.966;11.038;2022-09-12T09:26:57;8.90;;;5.07;;
30380;SDS011;17169;50.966;11.038;2022-09-12T09:30:04;9.85;;;4.50;;
30380;SDS011;17169;50.966;11.038;2022-09-12T09:33:16;9.13;;;5.55;;
30380;SDS011;17169;50.966;11.038;2022-09-12T09:36:22;12.73;;;4.97;;
30380;SDS011;17169;50.966;11.038;2022-09-12T09:39:39;9.10;;;4.68;;
30380;SDS011;17169;50.966;11.038;2022-09-12T09:42:51;8.85;;;4.28;;
30380;SDS011;17169;50.966;11.038;2022-09-12T09:46:02;8.00;;;4.45;;
30380;SDS011;17169;50.966;11.038;2022-09-12T09:49:05;6.28;;;4.00;;
30380;SDS011;17169;50.966;11.038;2022-09-12T09:52:15;8.57;;;4.35;;
30380;SDS011;17169;50.966;11.038;2022-09-12T09:55:22;9.65;;;4.50;;
30380;SDS011;17169;50.966;11.038;2022-09-12T09:58:29;8.65;;;3.75;;
30380;SDS011;17169;50.966;11.038;2022-09-12T10:01:33;6.50;;;3.17;;
30380;SDS011;17169;50.966;11.038;2022-09-12T10:04:38;9.18;;;3.63;;
30380;SDS011;17169;50.966;11.038;2022-09-12T10:07:48;7.07;;;4.13;;
30380;SDS011;17169;50.966;11.038;2022-09-12T10:10:54;8.25;;;4.20;;
30380;SDS011;17169;50.966;11.038;2022-09-12T10:13:58;8.05;;;3.60;;
30380;SDS011;17169;50.966;11.038;2022-09-12T10:17:04;5.88;;;3.22;;
30380;SDS011;17169;50.966;11.038;2022-09-12T10:20:28;7.45;;;3.45;;
30380;SDS011;17169;50.966;11.038;2022-09-12T10:23:33;7.82;;;3.17;;
30380;SDS011;17169;50.966;11.038;2022-09-12T10:26:39;8.43;;;3.05;;
30380;SDS011;17169;50.966;11.038;2022-09-12T10:29:44;8.07;;;3.05;;
30380;SDS011;17169;50.966;11.038;2022-09-12T10:32:50;4.57;;;2.78;;
30380;SDS011;17169;50.966;11.038;2022-09-12T10:35:53;4.70;;;2.78;;
30380;SDS011;17169;50.966;11.038;2022-09-12T10:38:57;6.28;;;2.95;;
30380;SDS011;17169;50.966;11.038;2022-09-12T10:42:02;5.70;;;2.78;;
30380;SDS011;17169;50.966;11.038;2022-09-12T10:45:11;6.55;;;2.92;;
30380;SDS011;17169;50.966;11.038;2022-09-12T10:48:26;5.13;;;3.00;;
30380;SDS011;17169;50.966;11.038;2022-09-12T10:51:29;4.95;;;2.72;;
30380;SDS011;17169;50.966;11.038;2022-09-12T10:54:32;4.80;;;2.70;;
30380;SDS011;17169;50.966;11.038;2022-09-12T10:57:40;4.97;;;2.50;;
30380;SDS011;17169;50.966;11.038;2022-09-12T11:00:53;7.20;;;3.20;;
30380;SDS011;17169;50.966;11.038;2022-09-12T11:04:17;5.85;;;3.03;;
30380;SDS011;17169;50.966;11.038;2022-09-12T11:07:28;6.80;;;2.90;;
30380;SDS011;17169;50.966;11.038;2022-09-12T11:10:40;6.55;;;3.28;;
30380;SDS011;17169;50.966;11.038;2022-09-12T11:13:51;10.77;;;3.13;;
30380;SDS011;17169;50.966;11.038;2022-09-12T11:17:05;5.60;;;3.22;;
30380;SDS011;17169;50.966;11.038;2022-09-12T11:20:25;5.18;;;3.10;;
30380;SDS011;17169;50.966;11.038;2022-09-12T11:23:40;6.13;;;3.28;;
30380;SDS011;17169;50.966;11.038;2022-09-12T11:27:03;6.90;;;3.00;;
30380;SDS011;17169;50.966;11.038;2022-09-12T11:30:18;7.53;;;2.70;;
30380;SDS011;17169;50.966;11.038;2022-09-12T11:33:24;4.15;;;2.75;;
30380;SDS011;17169;50.966;11.038;2022-09-12T11:36:44;5.63;;;2.75;;
30380;SDS011;17169;50.966;11.038;2022-09-12T11:43:10;4.75;;;2.50;;
30380;SDS011;17169;50.966;11.038;2022-09-12T11:49:43;4.03;;;2.17;;
30380;SDS011;17169;50.966;11.038;2022-09-12T11:52:49;4.00;;;2.25;;
30380;SDS011;17169;50.966;11.038;2022-09-12T11:55:54;4.20;;;2.42;;
30380;SDS011;17169;50.966;11.038;2022-09-12T11:59:03;5.10;;;2.40;;
30380;SDS011;17169;50.966;11.038;2022-09-12T12:02:13;4.55;;;2.70;;
30380;SDS011;17169;50.966;11.038;2022-09-12T12:05:21;4.10;;;2.45;;
30380;SDS011;17169;50.966;11.038;2022-09-12T12:08:28;4.40;;;2.28;;
30380;SDS011;17169;50.966;11.038;2022-09-12T12:11:32;5.25;;;2.38;;
30380;SDS011;17169;50.966;11.038;2022-09-12T12:14:39;3.67;;;2.13;;
30380;SDS011;17169;50.966;11.038;2022-09-12T12:17:45;4.60;;;2.42;;
30380;SDS011;17169;50.966;11.038;2022-09-12T12:21:27;3.42;;;1.90;;
30380;SDS011;17169;50.966;11.038;2022-09-12T12:24:53;4.15;;;1.95;;
30380;SDS011;17169;50.966;11.038;2022-09-12T12:27:59;3.63;;;1.92;;
30380;SDS011;17169;50.966;11.038;2022-09-12T12:31:02;3.63;;;1.65;;
30380;SDS011;17169;50.966;11.038;2022-09-12T12:34:19;4.25;;;2.20;;
30380;SDS011;17169;50.966;11.038;2022-09-12T12:47:50;4.30;;;1.80;;
30380;SDS011;17169;50.966;11.038;2022-09-12T12:54:28;4.13;;;2.10;;
30380;SDS011;17169;50.966;11.038;2022-09-12T12:57:39;4.80;;;1.85;;
30380;SDS011;17169;50.966;11.038;2022-09-12T13:00:58;3.00;;;1.58;;
30380;SDS011;17169;50.966;11.038;2022-09-12T13:04:11;3.97;;;1.92;;
30380;SDS011;17169;50.966;11.038;2022-09-12T13:07:20;4.70;;;2.50;;
30380;SDS011;17169;50.966;11.038;2022-09-12T13:10:28;3.78;;;1.92;;
30380;SDS011;17169;50.966;11.038;2022-09-12T13:13:33;5.50;;;1.77;;
30380;SDS011;17169;50.966;11.038;2022-09-12T13:16:52;4.55;;;1.80;;
30380;SDS011;17169;50.966;11.038;2022-09-12T13:20:01;3.00;;;1.90;;
30380;SDS011;17169;50.966;11.038;2022-09-12T13:23:22;4.55;;;1.90;;
30380;SDS011;17169;50.966;11.038;2022-09-12T13:26:26;5.22;;;1.92;;
30380;SDS011;17169;50.966;11.038;2022-09-12T13:29:29;4.65;;;1.98;;
30380;SDS011;17169;50.966;11.038;2022-09-12T13:32:32;3.25;;;1.80;;
30380;SDS011;17169;50.966;11.038;2022-09-12T13:35:39;3.63;;;2.17;;
30380;SDS011;17169;50.966;11.038;2022-09-12T13:38:56;3.33;;;1.85;;
30380;SDS011;17169;50.966;11.038;2022-09-12T13:42:29;6.13;;;1.73;;
30380;SDS011;17169;50.966;11.038;2022-09-12T13:45:40;3.65;;;1.70;;
30380;SDS011;17169;50.966;11.038;2022-09-12T13:48:45;2.60;;;1.67;;
30380;SDS011;17169;50.966;11.038;2022-09-12T13:51:53;3.33;;;1.70;;
30380;SDS011;17169;50.966;11.038;2022-09-12T13:55:00;2.70;;;1.38;;
30380;SDS011;17169;50.966;11.038;2022-09-12T13:58:14;2.55;;;1.50;;
30380;SDS011;17169;50.966;11.038;2022-09-12T14:01:20;4.28;;;1.85;;
30380;SDS011;17169;50.966;11.038;2022-09-12T14:04:25;3.40;;;1.80;;
30380;SDS011;17169;50.966;11.038;2022-09-12T14:07:48;3.72;;;1.70;;
30380;SDS011;17169;50.966;11.038;2022-09-12T14:10:55;3.88;;;1.70;;
30380;SDS011;17169;50.966;11.038;2022-09-12T14:13:58;5.05;;;2.78;;
30380;SDS011;17169;50.966;11.038;2022-09-12T14:17:13;3.55;;;1.70;;
30380;SDS011;17169;50.966;11.038;2022-09-12T14:20:18;3.42;;;1.90;;
30380;SDS011;17169;50.966;11.038;2022-09-12T14:23:24;2.90;;;1.70;;
30380;SDS011;17169;50.966;11.038;2022-09-12T14:26:29;3.28;;;1.67;;
30380;SDS011;17169;50.966;11.038;2022-09-12T14:29:34;5.30;;;1.90;;
30380;SDS011;17169;50.966;11.038;2022-09-12T14:32:37;8.00;;;2.13;;
30380;SDS011;17169;50.966;11.038;2022-09-12T14:35:41;3.88;;;2.08;;
30380;SDS011;17169;50.966;11.038;2022-09-12T14:38:44;7.60;;;1.80;;
30380;SDS011;17169;50.966;11.038;2022-09-12T14:41:50;3.30;;;2.03;;
30380;SDS011;17169;50.966;11.038;2022-09-12T14:45:03;4.63;;;2.30;;
30380;SDS011;17169;50.966;11.038;2022-09-12T14:48:15;3.00;;;1.60;;
30380;SDS011;17169;50.966;11.038;2022-09-12T14:54:35;6.82;;;2.13;;
30380;SDS011;17169;50.966;11.038;2022-09-12T14:57:39;5.10;;;2.20;;
30380;SDS011;17169;50.966;11.038;2022-09-12T15:00:51;6.03;;;2.00;;
30380;SDS011;17169;50.966;11.038;2022-09-12T15:03:55;2.72;;;1.70;;
30380;SDS011;17169;50.966;11.038;2022-09-12T15:06:59;5.95;;;1.83;;
30380;SDS011;17169;50.966;11.038;2022-09-12T15:10:15;4.70;;;2.25;;
30380;SDS011;17169;50.966;11.038;2022-09-12T15:13:22;5.40;;;2.20;;
30380;SDS011;17169;50.966;11.038;2022-09-12T15:16:26;19.07;;;14.03;;
30380;SDS011;17169;50.966;11.038;2022-09-12T15:19:28;8.90;;;2.83;;
30380;SDS011;17169;50.966;11.038;2022-09-12T15:22:32;5.65;;;2.33;;
30380;SDS011;17169;50.966;11.038;2022-09-12T15:25:36;5.72;;;1.73;;
30380;SDS011;17169;50.966;11.038;2022-09-12T15:28:39;4.07;;;1.90;;
30380;SDS011;17169;50.966;11.038;2022-09-12T15:31:44;6.60;;;2.38;;
30380;SDS011;17169;50.966;11.038;2022-09-12T15:34:47;3.45;;;1.83;;
30380;SDS011;17169;50.966;11.038;2022-09-12T15:37:51;3.35;;;2.10;;
30380;SDS011;17169;50.966;11.038;2022-09-12T15:40:54;6.50;;;2.20;;
30380;SDS011;17169;50.966;11.038;2022-09-12T15:43:57;4.13;;;2.10;;
30380;SDS011;17169;50.966;11.038;2022-09-12T15:47:00;3.50;;;2.15;;
30380;SDS011;17169;50.966;11.038;2022-09-12T15:50:03;8.57;;;2.10;;
30380;SDS011;17169;50.966;11.038;2022-09-12T15:53:09;4.00;;;1.92;;
30380;SDS011;17169;50.966;11.038;2022-09-12T15:56:16;3.33;;;2.10;;
30380;SDS011;17169;50.966;11.038;2022-09-12T15:59:20;4.65;;;2.08;;
30380;SDS011;17169;50.966;11.038;2022-09-12T16:02:23;5.60;;;2.00;;
30380;SDS011;17169;50.966;11.038;2022-09-12T16:05:25;3.67;;;2.40;;
30380;SDS011;17169;50.966;11.038;2022-09-12T16:08:30;4.75;;;2.03;;
30380;SDS011;17169;50.966;11.038;2022-09-12T16:11:34;3.63;;;2.00;;
30380;SDS011;17169;50.966;11.038;2022-09-12T16:14:37;3.58;;;2.28;;
30380;SDS011;17169;50.966;11.038;2022-09-12T16:17:39;4.18;;;1.83;;
30380;SDS011;17169;50.966;11.038;2022-09-12T16:20:42;4.00;;;2.30;;
30380;SDS011;17169;50.966;11.038;2022-09-12T16:23:46;2.83;;;1.83;;
30380;SDS011;17169;50.966;11.038;2022-09-12T16:26:48;3.78;;;1.95;;
30380;SDS011;17169;50.966;11.038;2022-09-12T16:29:51;4.30;;;2.13;;
30380;SDS011;17169;50.966;11.038;2022-09-12T16:32:53;3.08;;;1.70;;
30380;SDS011;17169;50.966;11.038;2022-09-12T16:35:59;3.20;;;1.98;;
30380;SDS011;17169;50.966;11.038;2022-09-12T16:39:04;5.20;;;2.03;;
30380;SDS011;17169;50.966;11.038;2022-09-12T16:42:06;2.92;;;1.50;;
30380;SDS011;17169;50.966;11.038;2022-09-12T16:45:09;2.47;;;1.52;;
30380;SDS011;17169;50.966;11.038;2022-09-12T16:48:12;3.58;;;1.95;;
30380;SDS011;17169;50.966;11.038;2022-09-12T16:51:15;4.25;;;1.85;;
30380;SDS011;17169;50.966;11.038;2022-09-12T16:54:21;3.85;;;1.52;;
30380;SDS011;17169;50.966;11.038;2022-09-12T16:57:23;4.38;;;1.70;;
30380;SDS011;17169;50.966;11.038;2022-09-12T17:00:25;4.43;;;1.77;;
30380;SDS011;17169;50.966;11.038;2022-09-12T17:03:28;5.93;;;1.55;;
30380;SDS011;17169;50.966;11.038;2022-09-12T17:06:31;5.22;;;2.22;;
30380;SDS011;17169;50.966;11.038;2022-09-12T17:09:36;3.17;;;1.42;;
30380;SDS011;17169;50.966;11.038;2022-09-12T17:12:38;4.97;;;2.25;;
30380;SDS011;17169;50.966;11.038;2022-09-12T17:15:40;3.08;;;1.55;;
30380;SDS011;17169;50.966;11.038;2022-09-12T17:18:42;4.25;;;1.50;;
30380;SDS011;17169;50.966;11.038;2022-09-12T17:21:45;3.70;;;1.60;;
30380;SDS011;17169;50.966;11.038;2022-09-12T17:24:49;3.47;;;1.67;;
30380;SDS011;17169;50.966;11.038;2022-09-12T17:27:52;3.72;;;2.00;;
30380;SDS011;17169;50.966;11.038;2022-09-12T17:30:54;3.10;;;1.80;;
30380;SDS011;17169;50.966;11.038;2022-09-12T17:33:57;4.93;;;2.20;;
30380;SDS011;17169;50.966;11.038;2022-09-12T17:37:00;4.97;;;1.88;;
30380;SDS011;17169;50.966;11.038;2022-09-12T17:40:05;5.50;;;1.88;;
30380;SDS011;17169;50.966;11.038;2022-09-12T17:46:11;4.20;;;2.58;;
30380;SDS011;17169;50.966;11.038;2022-09-12T17:49:14;3.83;;;2.10;;
30380;SDS011;17169;50.966;11.038;2022-09-12T17:52:18;3.47;;;1.75;;
30380;SDS011;17169;50.966;11.038;2022-09-12T17:55:22;5.47;;;2.00;;
30380;SDS011;17169;50.966;11.038;2022-09-12T17:58:24;3.67;;;1.90;;
30380;SDS011;17169;50.966;11.038;2022-09-12T18:01:27;4.13;;;2.10;;
30380;SDS011;17169;50.966;11.038;2022-09-12T18:04:47;4.65;;;2.28;;
30380;SDS011;17169;50.966;11.038;2022-09-12T18:07:50;4.68;;;2.75;;
30380;SDS011;17169;50.966;11.038;2022-09-12T18:11:01;4.32;;;2.70;;
30380;SDS011;17169;50.966;11.038;2022-09-12T18:14:05;4.97;;;2.97;;
30380;SDS011;17169;50.966;11.038;2022-09-12T18:17:07;5.03;;;2.78;;
30380;SDS011;17169;50.966;11.038;2022-09-12T18:20:11;4.15;;;2.65;;
30380;SDS011;17169;50.966;11.038;2022-09-12T18:23:13;3.60;;;2.38;;
30380;SDS011;17169;50.966;11.038;2022-09-12T18:26:17;8.20;;;3.00;;
30380;SDS011;17169;50.966;11.038;2022-09-12T18:29:19;9.55;;;3.03;;
30380;SDS011;17169;50.966;11.038;2022-09-12T18:32:22;8.32;;;2.20;;
30380;SDS011;17169;50.966;11.038;2022-09-12T18:35:24;6.38;;;2.83;;
30380;SDS011;17169;50.966;11.038;2022-09-12T18:38:27;5.43;;;2.60;;
30380;SDS011;17169;50.966;11.038;2022-09-12T18:41:30;4.95;;;2.75;;
30380;SDS011;17169;50.966;11.038;2022-09-12T18:44:33;5.00;;;2.38;;
30380;SDS011;17169;50.966;11.038;2022-09-12T18:47:35;3.92;;;2.42;;
30380;SDS011;17169;50.966;11.038;2022-09-12T18:50:38;6.32;;;2.63;;
30380;SDS011;17169;50.966;11.038;2022-09-12T18:53:41;4.97;;;3.08;;
30380;SDS011;17169;50.966;11.038;2022-09-12T18:56:45;5.40;;;2.80;;